sensor_id;sensor_type;location;lat;lon;timestamp;P1;durP1;ratioP1;P2;durP2;ratioP2
43771;SDS011;59066;54.782;32.024;2023-02-26T00:01:29;1.08;;;0.98;;
43771;SDS011;59066;54.782;32.024;2023-02-26T00:03:59;3.75;;;2.15;;
43771;SDS011;59066;54.782;32.024;2023-02-26T00:06:32;3.80;;;2.70;;
43771;SDS011;59066;54.782;32.024;2023-02-26T00:09:02;3.50;;;1.65;;
43771;SDS011;59066;54.782;32.024;2023-02-26T00:11:31;4.00;;;3.30;;
43771;SDS011;59066;54.782;32.024;2023-02-26T00:13:59;3.65;;;2.42;;
43771;SDS011;59066;54.782;32.024;2023-02-26T00:16:28;3.75;;;2.80;;
43771;SDS011;59066;54.782;32.024;2023-02-26T00:19:02;2.30;;;1.83;;
43771;SDS011;59066;54.782;32.024;2023-02-26T00:21:31;2.35;;;1.70;;
43771;SDS011;59066;54.782;32.024;2023-02-26T00:24:00;3.17;;;2.58;;
43771;SDS011;59066;54.782;32.024;2023-02-26T00:26:28;2.30;;;1.98;;
43771;SDS011;59066;54.782;32.024;2023-02-26T00:28:58;1.63;;;1.52;;
43771;SDS011;59066;54.782;32.024;2023-02-26T00:31:26;1.60;;;1.50;;
43771;SDS011;59066;54.782;32.024;2023-02-26T00:33:54;3.70;;;2.70;;
43771;SDS011;59066;54.782;32.024;2023-02-26T00:42:23;1.75;;;1.27;;
43771;SDS011;59066;54.782;32.024;2023-02-26T00:44:51;1.40;;;1.30;;
43771;SDS011;59066;54.782;32.024;2023-02-26T00:52:43;2.17;;;1.90;;
43771;SDS011;59066;54.782;32.024;2023-02-26T00:55:22;1.30;;;1.20;;
43771;SDS011;59066;54.782;32.024;2023-02-26T00:57:50;4.18;;;2.75;;
43771;SDS011;59066;54.782;32.024;2023-02-26T01:00:17;1.60;;;1.50;;
43771;SDS011;59066;54.782;32.024;2023-02-26T01:02:46;1.63;;;1.52;;
43771;SDS011;59066;54.782;32.024;2023-02-26T01:05:14;1.85;;;1.75;;
43771;SDS011;59066;54.782;32.024;2023-02-26T01:12:48;2.78;;;2.08;;
43771;SDS011;59066;54.782;32.024;2023-02-26T01:15:15;2.08;;;1.88;;
43771;SDS011;59066;54.782;32.024;2023-02-26T01:17:48;2.33;;;2.13;;
43771;SDS011;59066;54.782;32.024;2023-02-26T01:20:23;1.60;;;1.50;;
43771;SDS011;59066;54.782;32.024;2023-02-26T01:22:56;3.13;;;2.80;;
43771;SDS011;59066;54.782;32.024;2023-02-26T01:25:39;1.77;;;1.67;;
43771;SDS011;59066;54.782;32.024;2023-02-26T01:28:14;2.13;;;1.70;;
43771;SDS011;59066;54.782;32.024;2023-02-26T01:30:42;2.75;;;2.35;;
43771;SDS011;59066;54.782;32.024;2023-02-26T01:35:41;2.05;;;1.88;;
43771;SDS011;59066;54.782;32.024;2023-02-26T01:38:31;1.75;;;1.52;;
43771;SDS011;59066;54.782;32.024;2023-02-26T01:41:28;1.30;;;1.20;;
43771;SDS011;59066;54.782;32.024;2023-02-26T01:44:02;2.65;;;1.95;;
43771;SDS011;59066;54.782;32.024;2023-02-26T01:49:26;4.82;;;2.90;;
43771;SDS011;59066;54.782;32.024;2023-02-26T01:51:55;1.92;;;1.65;;
43771;SDS011;59066;54.782;32.024;2023-02-26T01:59:36;3.33;;;2.17;;
43771;SDS011;59066;54.782;32.024;2023-02-26T02:02:06;1.45;;;1.30;;
43771;SDS011;59066;54.782;32.024;2023-02-26T02:04:36;2.53;;;1.98;;
43771;SDS011;59066;54.782;32.024;2023-02-26T02:07:04;2.40;;;2.00;;
43771;SDS011;59066;54.782;32.024;2023-02-26T02:09:33;3.67;;;3.13;;
43771;SDS011;59066;54.782;32.024;2023-02-26T02:14:53;3.03;;;2.72;;
43771;SDS011;59066;54.782;32.024;2023-02-26T02:20:13;2.75;;;2.28;;
43771;SDS011;59066;54.782;32.024;2023-02-26T02:31:42;3.53;;;3.20;;
43771;SDS011;59066;54.782;32.024;2023-02-26T02:34:28;2.83;;;2.53;;
43771;SDS011;59066;54.782;32.024;2023-02-26T02:39:32;2.67;;;2.05;;
43771;SDS011;59066;54.782;32.024;2023-02-26T02:42:05;2.88;;;2.60;;
43771;SDS011;59066;54.782;32.024;2023-02-26T02:44:45;2.38;;;2.17;;
43771;SDS011;59066;54.782;32.024;2023-02-26T02:47:17;1.95;;;1.70;;
43771;SDS011;59066;54.782;32.024;2023-02-26T02:49:53;3.15;;;2.00;;
43771;SDS011;59066;54.782;32.024;2023-02-26T02:52:30;2.63;;;2.15;;
43771;SDS011;59066;54.782;32.024;2023-02-26T02:55:15;2.70;;;2.50;;
43771;SDS011;59066;54.782;32.024;2023-02-26T03:00:16;2.78;;;2.10;;
43771;SDS011;59066;54.782;32.024;2023-02-26T03:02:58;2.80;;;2.05;;
43771;SDS011;59066;54.782;32.024;2023-02-26T03:05:31;1.25;;;1.15;;
43771;SDS011;59066;54.782;32.024;2023-02-26T03:08:04;2.63;;;2.13;;
43771;SDS011;59066;54.782;32.024;2023-02-26T03:10:34;2.10;;;2.00;;
43771;SDS011;59066;54.782;32.024;2023-02-26T03:13:03;3.08;;;2.38;;
43771;SDS011;59066;54.782;32.024;2023-02-26T03:15:54;2.20;;;2.00;;
43771;SDS011;59066;54.782;32.024;2023-02-26T03:18:29;2.50;;;2.30;;
43771;SDS011;59066;54.782;32.024;2023-02-26T03:21:12;3.85;;;3.20;;
43771;SDS011;59066;54.782;32.024;2023-02-26T03:26:32;2.60;;;2.30;;
43771;SDS011;59066;54.782;32.024;2023-02-26T03:31:43;2.80;;;2.22;;
43771;SDS011;59066;54.782;32.024;2023-02-26T03:34:30;3.47;;;3.10;;
43771;SDS011;59066;54.782;32.024;2023-02-26T03:37:17;5.60;;;3.22;;
43771;SDS011;59066;54.782;32.024;2023-02-26T03:40:34;1.45;;;1.35;;
43771;SDS011;59066;54.782;32.024;2023-02-26T03:43:05;3.17;;;1.83;;
43771;SDS011;59066;54.782;32.024;2023-02-26T03:45:36;3.65;;;2.08;;
43771;SDS011;59066;54.782;32.024;2023-02-26T03:48:07;3.10;;;2.63;;
43771;SDS011;59066;54.782;32.024;2023-02-26T03:50:42;2.42;;;2.17;;
43771;SDS011;59066;54.782;32.024;2023-02-26T03:53:38;2.45;;;2.25;;
43771;SDS011;59066;54.782;32.024;2023-02-26T03:56:31;3.50;;;3.00;;
43771;SDS011;59066;54.782;32.024;2023-02-26T03:59:24;1.73;;;1.50;;
43771;SDS011;59066;54.782;32.024;2023-02-26T04:02:18;2.40;;;2.13;;
43771;SDS011;59066;54.782;32.024;2023-02-26T04:04:58;4.47;;;2.85;;
43771;SDS011;59066;54.782;32.024;2023-02-26T04:07:29;8.43;;;7.68;;
43771;SDS011;59066;54.782;32.024;2023-02-26T04:09:57;2.00;;;1.80;;
43771;SDS011;59066;54.782;32.024;2023-02-26T04:12:27;1.60;;;1.50;;
43771;SDS011;59066;54.782;32.024;2023-02-26T04:14:55;2.53;;;1.85;;
43771;SDS011;59066;54.782;32.024;2023-02-26T04:17:24;4.00;;;2.13;;
43771;SDS011;59066;54.782;32.024;2023-02-26T04:19:51;3.80;;;2.38;;
43771;SDS011;59066;54.782;32.024;2023-02-26T04:22:19;4.03;;;2.53;;
43771;SDS011;59066;54.782;32.024;2023-02-26T04:24:46;4.25;;;3.22;;
43771;SDS011;59066;54.782;32.024;2023-02-26T04:27:15;3.75;;;2.83;;
43771;SDS011;59066;54.782;32.024;2023-02-26T04:29:43;5.60;;;4.05;;
43771;SDS011;59066;54.782;32.024;2023-02-26T04:32:11;5.10;;;3.60;;
43771;SDS011;59066;54.782;32.024;2023-02-26T04:34:39;3.80;;;2.65;;
43771;SDS011;59066;54.782;32.024;2023-02-26T04:37:07;4.30;;;3.33;;
43771;SDS011;59066;54.782;32.024;2023-02-26T04:39:35;3.78;;;2.58;;
43771;SDS011;59066;54.782;32.024;2023-02-26T04:42:02;4.05;;;2.78;;
43771;SDS011;59066;54.782;32.024;2023-02-26T04:44:31;4.10;;;3.08;;
43771;SDS011;59066;54.782;32.024;2023-02-26T04:47:02;4.43;;;2.83;;
43771;SDS011;59066;54.782;32.024;2023-02-26T04:49:30;5.93;;;3.42;;
43771;SDS011;59066;54.782;32.024;2023-02-26T04:51:58;7.50;;;5.82;;
43771;SDS011;59066;54.782;32.024;2023-02-26T04:54:26;4.95;;;3.58;;
43771;SDS011;59066;54.782;32.024;2023-02-26T04:56:54;7.43;;;4.07;;
43771;SDS011;59066;54.782;32.024;2023-02-26T04:59:21;3.33;;;2.78;;
43771;SDS011;59066;54.782;32.024;2023-02-26T05:01:49;8.20;;;5.35;;
43771;SDS011;59066;54.782;32.024;2023-02-26T05:04:17;9.80;;;8.02;;
43771;SDS011;59066;54.782;32.024;2023-02-26T05:06:48;5.57;;;3.92;;
43771;SDS011;59066;54.782;32.024;2023-02-26T05:09:16;10.30;;;7.10;;
43771;SDS011;59066;54.782;32.024;2023-02-26T05:11:43;9.50;;;7.05;;
43771;SDS011;59066;54.782;32.024;2023-02-26T05:14:11;8.68;;;6.85;;
43771;SDS011;59066;54.782;32.024;2023-02-26T05:16:39;7.35;;;5.85;;
43771;SDS011;59066;54.782;32.024;2023-02-26T05:19:07;7.07;;;4.50;;
43771;SDS011;59066;54.782;32.024;2023-02-26T05:21:34;9.60;;;6.80;;
43771;SDS011;59066;54.782;32.024;2023-02-26T05:24:02;6.57;;;5.15;;
43771;SDS011;59066;54.782;32.024;2023-02-26T05:26:30;8.20;;;5.63;;
43771;SDS011;59066;54.782;32.024;2023-02-26T05:28:57;6.63;;;4.43;;
43771;SDS011;59066;54.782;32.024;2023-02-26T05:31:25;7.13;;;5.28;;
43771;SDS011;59066;54.782;32.024;2023-02-26T05:33:53;7.32;;;5.13;;
43771;SDS011;59066;54.782;32.024;2023-02-26T05:36:20;11.60;;;8.18;;
43771;SDS011;59066;54.782;32.024;2023-02-26T05:38:47;14.25;;;12.00;;
43771;SDS011;59066;54.782;32.024;2023-02-26T05:41:15;9.73;;;6.95;;
43771;SDS011;59066;54.782;32.024;2023-02-26T05:43:42;10.65;;;6.68;;
43771;SDS011;59066;54.782;32.024;2023-02-26T05:46:10;11.98;;;8.07;;
43771;SDS011;59066;54.782;32.024;2023-02-26T05:48:37;12.18;;;9.00;;
43771;SDS011;59066;54.782;32.024;2023-02-26T05:51:05;9.07;;;6.43;;
43771;SDS011;59066;54.782;32.024;2023-02-26T05:53:32;11.50;;;7.25;;
43771;SDS011;59066;54.782;32.024;2023-02-26T05:55:59;8.88;;;5.60;;
43771;SDS011;59066;54.782;32.024;2023-02-26T05:58:27;13.65;;;9.35;;
43771;SDS011;59066;54.782;32.024;2023-02-26T06:00:54;14.40;;;8.90;;
43771;SDS011;59066;54.782;32.024;2023-02-26T06:03:24;13.35;;;9.20;;
43771;SDS011;59066;54.782;32.024;2023-02-26T06:05:52;7.78;;;5.70;;
43771;SDS011;59066;54.782;32.024;2023-02-26T06:08:19;9.93;;;7.30;;
43771;SDS011;59066;54.782;32.024;2023-02-26T06:10:47;11.43;;;6.75;;
43771;SDS011;59066;54.782;32.024;2023-02-26T06:13:17;10.50;;;6.85;;
43771;SDS011;59066;54.782;32.024;2023-02-26T06:15:46;11.55;;;7.35;;
43771;SDS011;59066;54.782;32.024;2023-02-26T06:18:15;12.82;;;8.98;;
43771;SDS011;59066;54.782;32.024;2023-02-26T06:20:43;10.15;;;6.55;;
43771;SDS011;59066;54.782;32.024;2023-02-26T06:23:10;10.45;;;6.28;;
43771;SDS011;59066;54.782;32.024;2023-02-26T06:25:38;16.02;;;10.02;;
43771;SDS011;59066;54.782;32.024;2023-02-26T06:28:05;15.77;;;11.05;;
43771;SDS011;59066;54.782;32.024;2023-02-26T06:30:32;13.48;;;8.85;;
43771;SDS011;59066;54.782;32.024;2023-02-26T06:33:00;15.60;;;10.77;;
43771;SDS011;59066;54.782;32.024;2023-02-26T06:35:28;12.50;;;9.60;;
43771;SDS011;59066;54.782;32.024;2023-02-26T06:37:56;15.43;;;10.10;;
43771;SDS011;59066;54.782;32.024;2023-02-26T06:40:23;13.63;;;8.18;;
43771;SDS011;59066;54.782;32.024;2023-02-26T06:42:51;8.27;;;6.25;;
43771;SDS011;59066;54.782;32.024;2023-02-26T06:45:18;10.68;;;7.03;;
43771;SDS011;59066;54.782;32.024;2023-02-26T06:47:46;10.60;;;7.35;;
43771;SDS011;59066;54.782;32.024;2023-02-26T06:50:13;18.25;;;13.60;;
43771;SDS011;59066;54.782;32.024;2023-02-26T06:52:41;14.70;;;8.35;;
43771;SDS011;59066;54.782;32.024;2023-02-26T06:55:09;9.20;;;7.53;;
43771;SDS011;59066;54.782;32.024;2023-02-26T06:57:37;10.25;;;7.30;;
43771;SDS011;59066;54.782;32.024;2023-02-26T07:00:06;11.15;;;6.45;;
43771;SDS011;59066;54.782;32.024;2023-02-26T07:02:35;18.20;;;11.60;;
43771;SDS011;59066;54.782;32.024;2023-02-26T07:05:04;10.10;;;7.72;;
43771;SDS011;59066;54.782;32.024;2023-02-26T07:07:34;9.02;;;5.80;;
43771;SDS011;59066;54.782;32.024;2023-02-26T07:10:02;7.15;;;4.25;;
43771;SDS011;59066;54.782;32.024;2023-02-26T07:12:29;9.90;;;6.70;;
43771;SDS011;59066;54.782;32.024;2023-02-26T07:14:57;9.48;;;6.45;;
43771;SDS011;59066;54.782;32.024;2023-02-26T07:17:24;9.00;;;6.25;;
43771;SDS011;59066;54.782;32.024;2023-02-26T07:19:52;12.70;;;8.05;;
43771;SDS011;59066;54.782;32.024;2023-02-26T07:22:20;7.88;;;5.13;;
43771;SDS011;59066;54.782;32.024;2023-02-26T07:24:48;10.07;;;6.97;;
43771;SDS011;59066;54.782;32.024;2023-02-26T07:27:16;9.48;;;6.63;;
43771;SDS011;59066;54.782;32.024;2023-02-26T07:29:44;7.45;;;4.47;;
43771;SDS011;59066;54.782;32.024;2023-02-26T07:32:11;9.65;;;6.07;;
43771;SDS011;59066;54.782;32.024;2023-02-26T07:34:38;8.93;;;6.00;;
43771;SDS011;59066;54.782;32.024;2023-02-26T07:37:06;11.30;;;6.63;;
43771;SDS011;59066;54.782;32.024;2023-02-26T07:39:33;10.45;;;7.30;;
43771;SDS011;59066;54.782;32.024;2023-02-26T07:42:00;10.55;;;8.02;;
43771;SDS011;59066;54.782;32.024;2023-02-26T07:44:28;13.60;;;9.00;;
43771;SDS011;59066;54.782;32.024;2023-02-26T07:46:55;7.40;;;5.03;;
43771;SDS011;59066;54.782;32.024;2023-02-26T07:49:23;12.68;;;7.32;;
43771;SDS011;59066;54.782;32.024;2023-02-26T07:51:51;14.13;;;10.55;;
43771;SDS011;59066;54.782;32.024;2023-02-26T07:54:18;10.60;;;6.13;;
43771;SDS011;59066;54.782;32.024;2023-02-26T07:56:46;9.73;;;5.88;;
43771;SDS011;59066;54.782;32.024;2023-02-26T07:59:13;14.07;;;9.23;;
43771;SDS011;59066;54.782;32.024;2023-02-26T08:01:40;13.88;;;9.20;;
43771;SDS011;59066;54.782;32.024;2023-02-26T08:04:08;11.65;;;7.22;;
43771;SDS011;59066;54.782;32.024;2023-02-26T08:06:36;13.48;;;8.68;;
43771;SDS011;59066;54.782;32.024;2023-02-26T08:09:03;9.75;;;6.60;;
43771;SDS011;59066;54.782;32.024;2023-02-26T08:11:31;6.88;;;4.78;;
43771;SDS011;59066;54.782;32.024;2023-02-26T08:14:01;8.68;;;5.60;;
43771;SDS011;59066;54.782;32.024;2023-02-26T08:16:29;9.15;;;5.65;;
43771;SDS011;59066;54.782;32.024;2023-02-26T08:18:56;12.52;;;8.63;;
43771;SDS011;59066;54.782;32.024;2023-02-26T08:21:24;7.18;;;4.43;;
43771;SDS011;59066;54.782;32.024;2023-02-26T08:23:52;7.80;;;4.80;;
43771;SDS011;59066;54.782;32.024;2023-02-26T08:26:20;8.82;;;4.63;;
43771;SDS011;59066;54.782;32.024;2023-02-26T08:28:47;7.60;;;4.10;;
43771;SDS011;59066;54.782;32.024;2023-02-26T08:31:15;11.10;;;9.00;;
43771;SDS011;59066;54.782;32.024;2023-02-26T08:33:43;6.63;;;4.38;;
43771;SDS011;59066;54.782;32.024;2023-02-26T08:36:11;7.50;;;5.63;;
43771;SDS011;59066;54.782;32.024;2023-02-26T08:38:38;11.02;;;7.40;;
43771;SDS011;59066;54.782;32.024;2023-02-26T08:41:06;10.25;;;6.55;;
43771;SDS011;59066;54.782;32.024;2023-02-26T08:43:34;11.82;;;8.57;;
43771;SDS011;59066;54.782;32.024;2023-02-26T08:46:02;9.68;;;5.68;;
43771;SDS011;59066;54.782;32.024;2023-02-26T08:48:30;7.53;;;5.30;;
43771;SDS011;59066;54.782;32.024;2023-02-26T08:50:57;7.70;;;4.53;;
43771;SDS011;59066;54.782;32.024;2023-02-26T08:53:25;9.43;;;5.80;;
43771;SDS011;59066;54.782;32.024;2023-02-26T08:55:52;12.68;;;7.32;;
43771;SDS011;59066;54.782;32.024;2023-02-26T08:58:20;9.15;;;4.95;;
43771;SDS011;59066;54.782;32.024;2023-02-26T09:00:47;10.25;;;7.30;;
43771;SDS011;59066;54.782;32.024;2023-02-26T09:03:15;11.38;;;7.32;;
43771;SDS011;59066;54.782;32.024;2023-02-26T09:05:43;7.47;;;5.45;;
43771;SDS011;59066;54.782;32.024;2023-02-26T09:08:10;10.30;;;6.95;;
43771;SDS011;59066;54.782;32.024;2023-02-26T09:10:41;9.80;;;4.20;;
43771;SDS011;59066;54.782;32.024;2023-02-26T09:13:09;5.68;;;3.42;;
43771;SDS011;59066;54.782;32.024;2023-02-26T09:15:36;9.43;;;5.97;;
43771;SDS011;59066;54.782;32.024;2023-02-26T09:18:04;8.30;;;5.10;;
43771;SDS011;59066;54.782;32.024;2023-02-26T09:20:32;9.38;;;6.30;;
43771;SDS011;59066;54.782;32.024;2023-02-26T09:22:59;5.65;;;3.40;;
43771;SDS011;59066;54.782;32.024;2023-02-26T09:25:27;9.40;;;8.50;;
43771;SDS011;59066;54.782;32.024;2023-02-26T09:27:54;9.48;;;4.88;;
43771;SDS011;59066;54.782;32.024;2023-02-26T09:30:24;10.82;;;6.80;;
43771;SDS011;59066;54.782;32.024;2023-02-26T09:32:51;7.15;;;5.95;;
43771;SDS011;59066;54.782;32.024;2023-02-26T09:35:18;8.77;;;5.65;;
43771;SDS011;59066;54.782;32.024;2023-02-26T09:37:46;12.02;;;7.63;;
43771;SDS011;59066;54.782;32.024;2023-02-26T09:40:20;14.00;;;8.18;;
43771;SDS011;59066;54.782;32.024;2023-02-26T09:45:36;11.80;;;5.57;;
43771;SDS011;59066;54.782;32.024;2023-02-26T09:48:05;12.18;;;8.27;;
43771;SDS011;59066;54.782;32.024;2023-02-26T09:50:43;7.53;;;3.72;;
43771;SDS011;59066;54.782;32.024;2023-02-26T09:55:42;8.32;;;5.63;;
43771;SDS011;59066;54.782;32.024;2023-02-26T09:58:21;10.88;;;5.40;;
43771;SDS011;59066;54.782;32.024;2023-02-26T10:03:27;6.20;;;3.83;;
43771;SDS011;59066;54.782;32.024;2023-02-26T10:06:15;12.57;;;7.78;;
43771;SDS011;59066;54.782;32.024;2023-02-26T10:14:37;9.52;;;4.35;;
43771;SDS011;59066;54.782;32.024;2023-02-26T10:19:47;7.70;;;4.10;;
43771;SDS011;59066;54.782;32.024;2023-02-26T10:22:35;6.90;;;5.13;;
43771;SDS011;59066;54.782;32.024;2023-02-26T10:25:18;7.72;;;5.35;;
43771;SDS011;59066;54.782;32.024;2023-02-26T10:35:49;6.93;;;4.65;;
43771;SDS011;59066;54.782;32.024;2023-02-26T10:38:22;9.38;;;6.05;;
43771;SDS011;59066;54.782;32.024;2023-02-26T10:41:07;8.75;;;5.03;;
43771;SDS011;59066;54.782;32.024;2023-02-26T10:46:21;16.52;;;9.27;;
43771;SDS011;59066;54.782;32.024;2023-02-26T10:51:49;7.43;;;4.75;;
43771;SDS011;59066;54.782;32.024;2023-02-26T10:54:20;11.07;;;6.68;;
43771;SDS011;59066;54.782;32.024;2023-02-26T10:56:53;8.07;;;4.78;;
43771;SDS011;59066;54.782;32.024;2023-02-26T10:59:22;6.25;;;3.72;;
43771;SDS011;59066;54.782;32.024;2023-02-26T11:01:50;9.68;;;5.03;;
43771;SDS011;59066;54.782;32.024;2023-02-26T11:04:20;9.75;;;6.93;;
43771;SDS011;59066;54.782;32.024;2023-02-26T11:06:54;6.25;;;3.88;;
43771;SDS011;59066;54.782;32.024;2023-02-26T11:09:25;10.35;;;7.60;;
43771;SDS011;59066;54.782;32.024;2023-02-26T11:12:20;9.45;;;3.53;;
43771;SDS011;59066;54.782;32.024;2023-02-26T11:14:49;9.25;;;5.97;;
43771;SDS011;59066;54.782;32.024;2023-02-26T11:17:24;7.10;;;3.72;;
43771;SDS011;59066;54.782;32.024;2023-02-26T11:20:01;6.13;;;3.92;;
43771;SDS011;59066;54.782;32.024;2023-02-26T11:22:32;6.28;;;4.07;;
43771;SDS011;59066;54.782;32.024;2023-02-26T11:25:02;6.28;;;3.97;;
43771;SDS011;59066;54.782;32.024;2023-02-26T11:27:31;3.55;;;2.70;;
43771;SDS011;59066;54.782;32.024;2023-02-26T11:30:06;9.75;;;7.85;;
43771;SDS011;59066;54.782;32.024;2023-02-26T11:32:44;7.05;;;5.50;;
43771;SDS011;59066;54.782;32.024;2023-02-26T11:35:16;8.40;;;3.97;;
43771;SDS011;59066;54.782;32.024;2023-02-26T11:37:51;8.30;;;4.82;;
43771;SDS011;59066;54.782;32.024;2023-02-26T11:40:22;7.18;;;3.83;;
43771;SDS011;59066;54.782;32.024;2023-02-26T11:42:59;4.35;;;2.78;;
43771;SDS011;59066;54.782;32.024;2023-02-26T11:45:29;4.45;;;3.22;;
43771;SDS011;59066;54.782;32.024;2023-02-26T11:48:04;12.05;;;6.78;;
43771;SDS011;59066;54.782;32.024;2023-02-26T11:50:37;10.73;;;6.35;;
43771;SDS011;59066;54.782;32.024;2023-02-26T11:53:18;10.43;;;5.15;;
43771;SDS011;59066;54.782;32.024;2023-02-26T11:55:51;7.75;;;4.03;;
43771;SDS011;59066;54.782;32.024;2023-02-26T11:58:20;6.25;;;3.88;;
43771;SDS011;59066;54.782;32.024;2023-02-26T12:00:53;5.82;;;3.78;;
43771;SDS011;59066;54.782;32.024;2023-02-26T12:03:26;5.07;;;3.75;;
43771;SDS011;59066;54.782;32.024;2023-02-26T12:05:56;9.48;;;4.35;;
43771;SDS011;59066;54.782;32.024;2023-02-26T12:08:31;5.05;;;3.40;;
43771;SDS011;59066;54.782;32.024;2023-02-26T12:22:48;8.68;;;5.47;;
43771;SDS011;59066;54.782;32.024;2023-02-26T12:28:36;5.28;;;3.75;;
43771;SDS011;59066;54.782;32.024;2023-02-26T13:04:41;6.15;;;4.55;;
43771;SDS011;59066;54.782;32.024;2023-02-26T13:14:01;2.75;;;2.00;;
43771;SDS011;59066;54.782;32.024;2023-02-26T13:19:29;6.85;;;4.47;;
43771;SDS011;59066;54.782;32.024;2023-02-26T13:22:17;5.03;;;2.70;;
43771;SDS011;59066;54.782;32.024;2023-02-26T13:24:53;3.20;;;2.35;;
43771;SDS011;59066;54.782;32.024;2023-02-26T13:27:28;5.63;;;3.72;;
43771;SDS011;59066;54.782;32.024;2023-02-26T13:32:49;6.35;;;4.03;;
43771;SDS011;59066;54.782;32.024;2023-02-26T13:35:34;4.22;;;2.67;;
43771;SDS011;59066;54.782;32.024;2023-02-26T13:38:09;4.38;;;3.30;;
43771;SDS011;59066;54.782;32.024;2023-02-26T13:43:58;5.95;;;3.60;;
43771;SDS011;59066;54.782;32.024;2023-02-26T13:46:48;4.35;;;2.97;;
43771;SDS011;59066;54.782;32.024;2023-02-26T13:52:06;13.40;;;10.40;;
43771;SDS011;59066;54.782;32.024;2023-02-26T13:54:50;5.75;;;3.33;;
43771;SDS011;59066;54.782;32.024;2023-02-26T14:00:25;6.45;;;3.88;;
43771;SDS011;59066;54.782;32.024;2023-02-26T14:10:58;4.88;;;4.35;;
43771;SDS011;59066;54.782;32.024;2023-02-26T14:13:31;4.00;;;2.90;;
43771;SDS011;59066;54.782;32.024;2023-02-26T14:26:27;4.88;;;3.97;;
43771;SDS011;59066;54.782;32.024;2023-02-26T14:31:54;2.78;;;2.40;;
43771;SDS011;59066;54.782;32.024;2023-02-26T14:34:39;5.28;;;3.47;;
43771;SDS011;59066;54.782;32.024;2023-02-26T14:37:14;5.40;;;3.42;;
43771;SDS011;59066;54.782;32.024;2023-02-26T14:40:04;4.75;;;2.88;;
43771;SDS011;59066;54.782;32.024;2023-02-26T14:42:44;6.40;;;4.10;;
43771;SDS011;59066;54.782;32.024;2023-02-26T14:48:13;2.53;;;2.25;;
43771;SDS011;59066;54.782;32.024;2023-02-26T14:50:52;3.92;;;1.77;;
43771;SDS011;59066;54.782;32.024;2023-02-26T14:59:52;7.22;;;3.33;;
43771;SDS011;59066;54.782;32.024;2023-02-26T15:05:26;4.03;;;2.77;;
43771;SDS011;59066;54.782;32.024;2023-02-26T15:08:24;4.20;;;2.90;;
43771;SDS011;59066;54.782;32.024;2023-02-26T15:11:07;4.57;;;3.15;;
43771;SDS011;59066;54.782;32.024;2023-02-26T15:14:15;2.10;;;1.70;;
43771;SDS011;59066;54.782;32.024;2023-02-26T15:16:55;4.50;;;3.58;;
43771;SDS011;59066;54.782;32.024;2023-02-26T15:22:27;3.35;;;2.58;;
43771;SDS011;59066;54.782;32.024;2023-02-26T15:25:02;3.95;;;2.50;;
43771;SDS011;59066;54.782;32.024;2023-02-26T15:27:33;5.53;;;2.35;;
43771;SDS011;59066;54.782;32.024;2023-02-26T15:30:02;3.72;;;3.15;;
43771;SDS011;59066;54.782;32.024;2023-02-26T15:32:35;2.10;;;1.85;;
43771;SDS011;59066;54.782;32.024;2023-02-26T15:35:09;4.95;;;3.00;;
43771;SDS011;59066;54.782;32.024;2023-02-26T15:37:42;5.15;;;4.03;;
43771;SDS011;59066;54.782;32.024;2023-02-26T15:40:18;4.03;;;3.30;;
43771;SDS011;59066;54.782;32.024;2023-02-26T15:42:52;7.03;;;3.75;;
43771;SDS011;59066;54.782;32.024;2023-02-26T15:45:26;5.15;;;3.67;;
43771;SDS011;59066;54.782;32.024;2023-02-26T15:48:00;3.80;;;2.33;;
43771;SDS011;59066;54.782;32.024;2023-02-26T15:50:31;4.43;;;2.55;;
43771;SDS011;59066;54.782;32.024;2023-02-26T15:53:02;3.92;;;2.45;;
43771;SDS011;59066;54.782;32.024;2023-02-26T15:55:33;3.70;;;2.10;;
43771;SDS011;59066;54.782;32.024;2023-02-26T15:58:05;4.07;;;3.03;;
43771;SDS011;59066;54.782;32.024;2023-02-26T16:00:34;12.18;;;6.80;;
43771;SDS011;59066;54.782;32.024;2023-02-26T16:03:02;6.85;;;4.72;;
43771;SDS011;59066;54.782;32.024;2023-02-26T16:05:30;4.28;;;2.17;;
43771;SDS011;59066;54.782;32.024;2023-02-26T16:07:58;4.95;;;2.65;;
43771;SDS011;59066;54.782;32.024;2023-02-26T16:10:27;3.95;;;2.67;;
43771;SDS011;59066;54.782;32.024;2023-02-26T16:12:59;3.53;;;2.80;;
43771;SDS011;59066;54.782;32.024;2023-02-26T16:15:28;3.15;;;2.55;;
43771;SDS011;59066;54.782;32.024;2023-02-26T16:18:00;5.75;;;2.80;;
43771;SDS011;59066;54.782;32.024;2023-02-26T16:20:33;4.32;;;2.55;;
43771;SDS011;59066;54.782;32.024;2023-02-26T16:23:06;5.90;;;3.63;;
43771;SDS011;59066;54.782;32.024;2023-02-26T16:28:22;3.03;;;1.98;;
43771;SDS011;59066;54.782;32.024;2023-02-26T16:30:54;5.40;;;2.60;;
43771;SDS011;59066;54.782;32.024;2023-02-26T16:33:25;3.33;;;2.33;;
43771;SDS011;59066;54.782;32.024;2023-02-26T16:36:04;4.50;;;3.17;;
43771;SDS011;59066;54.782;32.024;2023-02-26T16:38:46;3.97;;;2.83;;
43771;SDS011;59066;54.782;32.024;2023-02-26T16:41:15;3.42;;;1.52;;
43771;SDS011;59066;54.782;32.024;2023-02-26T16:46:19;5.65;;;3.83;;
43771;SDS011;59066;54.782;32.024;2023-02-26T16:48:57;5.22;;;2.97;;
43771;SDS011;59066;54.782;32.024;2023-02-26T16:51:34;6.85;;;5.28;;
43771;SDS011;59066;54.782;32.024;2023-02-26T16:54:05;3.08;;;2.05;;
43771;SDS011;59066;54.782;32.024;2023-02-26T16:56:39;4.45;;;2.88;;
43771;SDS011;59066;54.782;32.024;2023-02-26T16:59:13;2.72;;;2.28;;
43771;SDS011;59066;54.782;32.024;2023-02-26T17:01:51;3.30;;;2.63;;
43771;SDS011;59066;54.782;32.024;2023-02-26T17:04:24;4.60;;;3.42;;
43771;SDS011;59066;54.782;32.024;2023-02-26T17:06:54;4.85;;;3.08;;
43771;SDS011;59066;54.782;32.024;2023-02-26T17:09:46;7.65;;;4.95;;
43771;SDS011;59066;54.782;32.024;2023-02-26T17:12:21;6.55;;;4.22;;
43771;SDS011;59066;54.782;32.024;2023-02-26T17:14:55;2.42;;;2.03;;
43771;SDS011;59066;54.782;32.024;2023-02-26T17:17:25;4.72;;;2.70;;
43771;SDS011;59066;54.782;32.024;2023-02-26T17:19:53;4.57;;;2.38;;
43771;SDS011;59066;54.782;32.024;2023-02-26T17:22:25;4.10;;;2.80;;
43771;SDS011;59066;54.782;32.024;2023-02-26T17:24:54;2.75;;;2.00;;
43771;SDS011;59066;54.782;32.024;2023-02-26T17:27:30;5.60;;;3.40;;
43771;SDS011;59066;54.782;32.024;2023-02-26T17:30:03;3.95;;;2.55;;
43771;SDS011;59066;54.782;32.024;2023-02-26T17:32:32;5.82;;;3.40;;
43771;SDS011;59066;54.782;32.024;2023-02-26T17:35:01;3.65;;;2.45;;
43771;SDS011;59066;54.782;32.024;2023-02-26T17:37:30;5.78;;;3.15;;
43771;SDS011;59066;54.782;32.024;2023-02-26T17:40:03;8.15;;;4.65;;
43771;SDS011;59066;54.782;32.024;2023-02-26T17:42:39;4.88;;;3.17;;
43771;SDS011;59066;54.782;32.024;2023-02-26T17:45:06;4.95;;;3.67;;
43771;SDS011;59066;54.782;32.024;2023-02-26T17:47:35;5.38;;;2.88;;
43771;SDS011;59066;54.782;32.024;2023-02-26T17:50:06;5.82;;;3.40;;
43771;SDS011;59066;54.782;32.024;2023-02-26T17:52:42;6.35;;;4.03;;
43771;SDS011;59066;54.782;32.024;2023-02-26T17:55:09;6.88;;;4.60;;
43771;SDS011;59066;54.782;32.024;2023-02-26T17:57:37;3.65;;;2.33;;
43771;SDS011;59066;54.782;32.024;2023-02-26T18:00:04;2.33;;;1.88;;
43771;SDS011;59066;54.782;32.024;2023-02-26T18:02:40;3.65;;;2.08;;
43771;SDS011;59066;54.782;32.024;2023-02-26T18:05:12;1.77;;;1.35;;
43771;SDS011;59066;54.782;32.024;2023-02-26T18:07:40;5.10;;;3.80;;
43771;SDS011;59066;54.782;32.024;2023-02-26T18:10:10;2.08;;;1.80;;
43771;SDS011;59066;54.782;32.024;2023-02-26T18:12:44;6.60;;;3.63;;